sensor_id;sensor_type;location;lat;lon;timestamp;pressure;altitude;pressure_sealevel;temperature;humidity
48553;BME280;34335;51.566;6.994;2023-09-18T00:01:21;100079.50;;;19.92;100.00
48553;BME280;34335;51.566;6.994;2023-09-18T00:03:46;100071.59;;;20.10;100.00
48553;BME280;34335;51.566;6.994;2023-09-18T00:06:11;100067.69;;;20.17;100.00
48553;BME280;34335;51.566;6.994;2023-09-18T00:08:38;100063.53;;;19.96;100.00
48553;BME280;34335;51.566;6.994;2023-09-18T00:11:04;100064.06;;;20.02;100.00
48553;BME280;34335;51.566;6.994;2023-09-18T00:13:29;100063.81;;;19.89;100.00
48553;BME280;34335;51.566;6.994;2023-09-18T00:15:55;100063.22;;;20.02;100.00
48553;BME280;34335;51.566;6.994;2023-09-18T00:18:20;100060.69;;;19.81;100.00
48553;BME280;34335;51.566;6.994;2023-09-18T00:20:46;100054.47;;;19.82;100.00
48553;BME280;34335;51.566;6.994;2023-09-18T00:23:11;100064.09;;;19.83;100.00
48553;BME280;34335;51.566;6.994;2023-09-18T00:25:36;100057.22;;;19.81;100.00
48553;BME280;34335;51.566;6.994;2023-09-18T00:28:02;100057.00;;;19.85;100.00
48553;BME280;34335;51.566;6.994;2023-09-18T00:30:27;100048.78;;;19.72;100.00
48553;BME280;34335;51.566;6.994;2023-09-18T00:32:53;100049.97;;;19.67;100.00
48553;BME280;34335;51.566;6.994;2023-09-18T00:35:18;100041.00;;;19.88;100.00
48553;BME280;34335;51.566;6.994;2023-09-18T00:37:44;100030.88;;;19.79;100.00
48553;BME280;34335;51.566;6.994;2023-09-18T00:40:09;100027.53;;;19.95;100.00
48553;BME280;34335;51.566;6.994;2023-09-18T00:42:35;100017.25;;;20.06;100.00
48553;BME280;34335;51.566;6.994;2023-09-18T00:45:00;100003.81;;;20.28;100.00
48553;BME280;34335;51.566;6.994;2023-09-18T00:47:25;100005.50;;;20.12;100.00
48553;BME280;34335;51.566;6.994;2023-09-18T00:49:52;99997.72;;;19.92;100.00
48553;BME280;34335;51.566;6.994;2023-09-18T00:52:19;99989.59;;;19.78;100.00
48553;BME280;34335;51.566;6.994;2023-09-18T00:54:47;99984.03;;;19.67;100.00
48553;BME280;34335;51.566;6.994;2023-09-18T00:57:13;99991.63;;;19.73;100.00
48553;BME280;34335;51.566;6.994;2023-09-18T00:59:39;99994.59;;;19.67;100.00
48553;BME280;34335;51.566;6.994;2023-09-18T01:02:04;99989.91;;;19.72;100.00
48553;BME280;34335;51.566;6.994;2023-09-18T01:04:30;99981.63;;;19.62;100.00
48553;BME280;34335;51.566;6.994;2023-09-18T01:06:56;99976.41;;;19.60;100.00
48553;BME280;34335;51.566;6.994;2023-09-18T01:09:21;99975.34;;;19.65;100.00
48553;BME280;34335;51.566;6.994;2023-09-18T01:11:58;99972.25;;;19.56;100.00
48553;BME280;34335;51.566;6.994;2023-09-18T01:14:31;99972.38;;;19.53;100.00
48553;BME280;34335;51.566;6.994;2023-09-18T01:16:59;99966.94;;;19.39;100.00
48553;BME280;34335;51.566;6.994;2023-09-18T01:19:42;99960.13;;;19.70;100.00
48553;BME280;34335;51.566;6.994;2023-09-18T01:22:30;99949.22;;;19.60;100.00
48553;BME280;34335;51.566;6.994;2023-09-18T01:24:55;99953.00;;;19.54;100.00
48553;BME280;34335;51.566;6.994;2023-09-18T01:27:21;99954.47;;;19.42;100.00
48553;BME280;34335;51.566;6.994;2023-09-18T01:29:47;99944.38;;;19.33;100.00
48553;BME280;34335;51.566;6.994;2023-09-18T01:32:13;99955.00;;;19.31;100.00
48553;BME280;34335;51.566;6.994;2023-09-18T01:34:57;99951.44;;;19.33;100.00
48553;BME280;34335;51.566;6.994;2023-09-18T01:37:27;99950.81;;;19.45;100.00
48553;BME280;34335;51.566;6.994;2023-09-18T01:39:53;99946.56;;;19.42;100.00
48553;BME280;34335;51.566;6.994;2023-09-18T01:42:19;99948.78;;;19.50;100.00
48553;BME280;34335;51.566;6.994;2023-09-18T01:44:47;99939.81;;;19.37;100.00
48553;BME280;34335;51.566;6.994;2023-09-18T01:47:15;99942.28;;;19.57;100.00
48553;BME280;34335;51.566;6.994;2023-09-18T01:49:41;99942.91;;;19.62;100.00
48553;BME280;34335;51.566;6.994;2023-09-18T01:52:07;99933.53;;;19.57;100.00
48553;BME280;34335;51.566;6.994;2023-09-18T01:54:33;99935.94;;;19.61;100.00
48553;BME280;34335;51.566;6.994;2023-09-18T01:56:59;99927.16;;;19.43;100.00
48553;BME280;34335;51.566;6.994;2023-09-18T01:59:25;99920.59;;;19.35;100.00
48553;BME280;34335;51.566;6.994;2023-09-18T02:01:52;99921.19;;;19.57;100.00
48553;BME280;34335;51.566;6.994;2023-09-18T02:04:18;99907.22;;;19.73;100.00
48553;BME280;34335;51.566;6.994;2023-09-18T02:07:03;99909.25;;;19.50;100.00
48553;BME280;34335;51.566;6.994;2023-09-18T02:09:28;99902.97;;;19.35;100.00
48553;BME280;34335;51.566;6.994;2023-09-18T02:11:53;99909.44;;;19.47;100.00
48553;BME280;34335;51.566;6.994;2023-09-18T02:14:18;99908.19;;;19.37;100.00
48553;BME280;34335;51.566;6.994;2023-09-18T02:16:44;99905.50;;;19.19;100.00
48553;BME280;34335;51.566;6.994;2023-09-18T02:19:10;99901.19;;;19.36;100.00
48553;BME280;34335;51.566;6.994;2023-09-18T02:21:36;99899.34;;;19.55;100.00
48553;BME280;34335;51.566;6.994;2023-09-18T02:24:01;99900.41;;;19.51;100.00
48553;BME280;34335;51.566;6.994;2023-09-18T02:26:27;99884.91;;;19.27;100.00
48553;BME280;34335;51.566;6.994;2023-09-18T02:28:53;99880.50;;;19.28;100.00
48553;BME280;34335;51.566;6.994;2023-09-18T02:31:18;99889.72;;;19.37;100.00
48553;BME280;34335;51.566;6.994;2023-09-18T02:33:44;99875.91;;;19.31;100.00
48553;BME280;34335;51.566;6.994;2023-09-18T02:36:09;99873.19;;;19.15;100.00
48553;BME280;34335;51.566;6.994;2023-09-18T02:38:34;99870.78;;;19.28;100.00
48553;BME280;34335;51.566;6.994;2023-09-18T02:41:00;99863.19;;;19.40;100.00
48553;BME280;34335;51.566;6.994;2023-09-18T02:43:26;99851.72;;;19.41;100.00
48553;BME280;34335;51.566;6.994;2023-09-18T02:45:51;99847.63;;;19.18;100.00
48553;BME280;34335;51.566;6.994;2023-09-18T02:48:17;99839.69;;;19.35;100.00
48553;BME280;34335;51.566;6.994;2023-09-18T02:50:43;99831.56;;;19.22;100.00
48553;BME280;34335;51.566;6.994;2023-09-18T02:53:18;99823.34;;;19.28;100.00
48553;BME280;34335;51.566;6.994;2023-09-18T02:55:48;99813.25;;;19.19;100.00
48553;BME280;34335;51.566;6.994;2023-09-18T02:58:13;99808.47;;;19.27;100.00
48553;BME280;34335;51.566;6.994;2023-09-18T03:00:42;99805.69;;;19.13;100.00
48553;BME280;34335;51.566;6.994;2023-09-18T03:03:08;99805.59;;;19.14;100.00
48553;BME280;34335;51.566;6.994;2023-09-18T03:05:34;99794.81;;;19.19;100.00
48553;BME280;34335;51.566;6.994;2023-09-18T03:07:59;99795.59;;;19.21;100.00
48553;BME280;34335;51.566;6.994;2023-09-18T03:10:24;99818.63;;;19.18;100.00
48553;BME280;34335;51.566;6.994;2023-09-18T03:12:50;99804.38;;;19.04;100.00
48553;BME280;34335;51.566;6.994;2023-09-18T03:15:15;99796.78;;;19.33;100.00
48553;BME280;34335;51.566;6.994;2023-09-18T03:17:40;99804.91;;;19.11;100.00
48553;BME280;34335;51.566;6.994;2023-09-18T03:20:06;99794.66;;;19.22;100.00
48553;BME280;34335;51.566;6.994;2023-09-18T03:22:31;99793.19;;;19.17;100.00
48553;BME280;34335;51.566;6.994;2023-09-18T03:24:57;99786.91;;;19.19;100.00
48553;BME280;34335;51.566;6.994;2023-09-18T03:27:22;99781.03;;;19.14;100.00
48553;BME280;34335;51.566;6.994;2023-09-18T03:29:53;99773.28;;;19.11;100.00
48553;BME280;34335;51.566;6.994;2023-09-18T03:32:18;99760.56;;;19.37;100.00
48553;BME280;34335;51.566;6.994;2023-09-18T03:34:44;99760.00;;;19.30;100.00
48553;BME280;34335;51.566;6.994;2023-09-18T03:37:09;99756.69;;;19.26;100.00
48553;BME280;34335;51.566;6.994;2023-09-18T03:39:34;99752.59;;;19.21;100.00
48553;BME280;34335;51.566;6.994;2023-09-18T03:41:59;99752.34;;;19.25;100.00
48553;BME280;34335;51.566;6.994;2023-09-18T03:44:25;99738.06;;;19.29;100.00
48553;BME280;34335;51.566;6.994;2023-09-18T03:46:50;99740.69;;;19.47;100.00
48553;BME280;34335;51.566;6.994;2023-09-18T03:49:15;99731.28;;;19.25;100.00
48553;BME280;34335;51.566;6.994;2023-09-18T03:51:40;99735.66;;;19.25;100.00
48553;BME280;34335;51.566;6.994;2023-09-18T03:54:06;99726.69;;;19.29;100.00
48553;BME280;34335;51.566;6.994;2023-09-18T03:56:31;99722.38;;;19.10;100.00
48553;BME280;34335;51.566;6.994;2023-09-18T03:58:56;99726.31;;;19.02;100.00
48553;BME280;34335;51.566;6.994;2023-09-18T04:01:22;99718.69;;;19.30;100.00
48553;BME280;34335;51.566;6.994;2023-09-18T04:03:47;99715.25;;;19.28;100.00
48553;BME280;34335;51.566;6.994;2023-09-18T04:06:12;99708.22;;;19.29;100.00
48553;BME280;34335;51.566;6.994;2023-09-18T04:08:37;99710.72;;;19.48;100.00
48553;BME280;34335;51.566;6.994;2023-09-18T04:11:03;99701.16;;;19.29;100.00
48553;BME280;34335;51.566;6.994;2023-09-18T04:13:28;99693.66;;;19.55;100.00
48553;BME280;34335;51.566;6.994;2023-09-18T04:15:53;99694.38;;;19.25;100.00
48553;BME280;34335;51.566;6.994;2023-09-18T04:18:18;99684.34;;;19.48;100.00
48553;BME280;34335;51.566;6.994;2023-09-18T04:20:44;99684.00;;;19.38;100.00
48553;BME280;34335;51.566;6.994;2023-09-18T04:25:45;99674.00;;;19.45;100.00
48553;BME280;34335;51.566;6.994;2023-09-18T04:28:10;99676.97;;;19.55;100.00
48553;BME280;34335;51.566;6.994;2023-09-18T04:30:36;99681.72;;;19.64;100.00
48553;BME280;34335;51.566;6.994;2023-09-18T04:33:01;99685.50;;;19.76;100.00
48553;BME280;34335;51.566;6.994;2023-09-18T04:35:26;99690.94;;;19.73;100.00
48553;BME280;34335;51.566;6.994;2023-09-18T04:37:55;99704.28;;;19.70;100.00
48553;BME280;34335;51.566;6.994;2023-09-18T04:40:20;99721.81;;;19.71;100.00
48553;BME280;34335;51.566;6.994;2023-09-18T04:42:46;99723.00;;;19.81;100.00
48553;BME280;34335;51.566;6.994;2023-09-18T04:45:11;99729.47;;;19.75;100.00
48553;BME280;34335;51.566;6.994;2023-09-18T04:47:36;99731.06;;;19.96;100.00
48553;BME280;34335;51.566;6.994;2023-09-18T04:50:01;99719.44;;;19.82;100.00
48553;BME280;34335;51.566;6.994;2023-09-18T04:52:27;99728.66;;;19.91;100.00
48553;BME280;34335;51.566;6.994;2023-09-18T04:54:52;99708.22;;;19.78;100.00
48553;BME280;34335;51.566;6.994;2023-09-18T04:57:17;99714.06;;;19.84;100.00
48553;BME280;34335;51.566;6.994;2023-09-18T04:59:42;99716.91;;;19.97;100.00
48553;BME280;34335;51.566;6.994;2023-09-18T05:02:08;99726.94;;;20.06;100.00
48553;BME280;34335;51.566;6.994;2023-09-18T05:04:33;99741.25;;;20.02;100.00
48553;BME280;34335;51.566;6.994;2023-09-18T05:06:58;99744.16;;;19.97;100.00
48553;BME280;34335;51.566;6.994;2023-09-18T05:09:23;99738.19;;;20.10;100.00
48553;BME280;34335;51.566;6.994;2023-09-18T05:11:49;99755.03;;;20.23;100.00
48553;BME280;34335;51.566;6.994;2023-09-18T05:14:14;99759.22;;;20.11;100.00
48553;BME280;34335;51.566;6.994;2023-09-18T05:16:39;99755.03;;;20.07;100.00
48553;BME280;34335;51.566;6.994;2023-09-18T05:19:04;99750.69;;;20.06;100.00
48553;BME280;34335;51.566;6.994;2023-09-18T05:21:30;99748.25;;;20.03;100.00
48553;BME280;34335;51.566;6.994;2023-09-18T05:23:55;99750.28;;;19.98;100.00
48553;BME280;34335;51.566;6.994;2023-09-18T05:26:20;99747.22;;;19.89;100.00
48553;BME280;34335;51.566;6.994;2023-09-18T05:28:45;99738.34;;;19.90;100.00
48553;BME280;34335;51.566;6.994;2023-09-18T05:31:12;99749.59;;;19.94;100.00
48553;BME280;34335;51.566;6.994;2023-09-18T05:33:37;99734.63;;;19.95;100.00
48553;BME280;34335;51.566;6.994;2023-09-18T05:36:03;99722.53;;;19.90;100.00
48553;BME280;34335;51.566;6.994;2023-09-18T05:38:28;99740.69;;;19.79;100.00
48553;BME280;34335;51.566;6.994;2023-09-18T05:40:53;99744.13;;;19.81;100.00
48553;BME280;34335;51.566;6.994;2023-09-18T05:43:19;99739.97;;;19.93;100.00
48553;BME280;34335;51.566;6.994;2023-09-18T05:45:44;99746.38;;;19.89;100.00
48553;BME280;34335;51.566;6.994;2023-09-18T05:48:09;99743.28;;;19.81;100.00
48553;BME280;34335;51.566;6.994;2023-09-18T05:50:35;99747.69;;;19.80;100.00
48553;BME280;34335;51.566;6.994;2023-09-18T05:53:03;99753.63;;;19.84;100.00
48553;BME280;34335;51.566;6.994;2023-09-18T05:55:32;99745.34;;;19.91;100.00
48553;BME280;34335;51.566;6.994;2023-09-18T05:57:58;99740.06;;;19.91;100.00
48553;BME280;34335;51.566;6.994;2023-09-18T06:00:23;99748.91;;;19.90;100.00
48553;BME280;34335;51.566;6.994;2023-09-18T06:02:49;99754.34;;;19.87;100.00
48553;BME280;34335;51.566;6.994;2023-09-18T06:05:15;99749.28;;;19.83;100.00
48553;BME280;34335;51.566;6.994;2023-09-18T06:07:40;99753.41;;;19.88;100.00
48553;BME280;34335;51.566;6.994;2023-09-18T06:10:05;99767.53;;;19.87;100.00
48553;BME280;34335;51.566;6.994;2023-09-18T06:12:31;99775.28;;;19.90;100.00
48553;BME280;34335;51.566;6.994;2023-09-18T06:14:56;99770.19;;;19.87;100.00
48553;BME280;34335;51.566;6.994;2023-09-18T06:17:21;99766.59;;;19.88;100.00
48553;BME280;34335;51.566;6.994;2023-09-18T06:19:47;99772.75;;;19.89;100.00
48553;BME280;34335;51.566;6.994;2023-09-18T06:22:13;99761.34;;;19.88;100.00
48553;BME280;34335;51.566;6.994;2023-09-18T06:24:38;99773.81;;;19.85;100.00
48553;BME280;34335;51.566;6.994;2023-09-18T06:27:04;99796.56;;;19.87;100.00
48553;BME280;34335;51.566;6.994;2023-09-18T06:29:33;99790.53;;;19.85;100.00
48553;BME280;34335;51.566;6.994;2023-09-18T06:31:59;99776.84;;;19.95;100.00
48553;BME280;34335;51.566;6.994;2023-09-18T06:34:25;99773.09;;;19.99;100.00
48553;BME280;34335;51.566;6.994;2023-09-18T06:36:50;99780.06;;;20.00;100.00
48553;BME280;34335;51.566;6.994;2023-09-18T06:39:16;99768.16;;;20.08;100.00
48553;BME280;34335;51.566;6.994;2023-09-18T06:41:41;99791.25;;;20.05;100.00
48553;BME280;34335;51.566;6.994;2023-09-18T06:44:06;99784.84;;;20.09;100.00
48553;BME280;34335;51.566;6.994;2023-09-18T06:46:32;99765.59;;;20.07;100.00
48553;BME280;34335;51.566;6.994;2023-09-18T06:48:57;99767.28;;;20.08;100.00
48553;BME280;34335;51.566;6.994;2023-09-18T06:51:23;99780.91;;;20.16;100.00
48553;BME280;34335;51.566;6.994;2023-09-18T06:53:48;99787.91;;;20.17;100.00
48553;BME280;34335;51.566;6.994;2023-09-18T06:56:13;99790.47;;;20.19;100.00
48553;BME280;34335;51.566;6.994;2023-09-18T06:58:39;99800.06;;;20.20;100.00
48553;BME280;34335;51.566;6.994;2023-09-18T07:01:04;99808.25;;;20.15;100.00
48553;BME280;34335;51.566;6.994;2023-09-18T07:03:30;99806.06;;;20.23;100.00
48553;BME280;34335;51.566;6.994;2023-09-18T07:05:55;99814.38;;;20.16;100.00
48553;BME280;34335;51.566;6.994;2023-09-18T07:08:20;99808.94;;;20.19;100.00
48553;BME280;34335;51.566;6.994;2023-09-18T07:10:45;99814.91;;;20.22;100.00
48553;BME280;34335;51.566;6.994;2023-09-18T07:13:11;99808.50;;;20.27;100.00
48553;BME280;34335;51.566;6.994;2023-09-18T07:15:38;99806.72;;;20.27;100.00
48553;BME280;34335;51.566;6.994;2023-09-18T07:18:04;99817.19;;;20.29;100.00
48553;BME280;34335;51.566;6.994;2023-09-18T07:20:29;99823.34;;;20.29;100.00
48553;BME280;34335;51.566;6.994;2023-09-18T07:22:54;99829.38;;;20.31;100.00
48553;BME280;34335;51.566;6.994;2023-09-18T07:25:20;99827.50;;;20.33;100.00
48553;BME280;34335;51.566;6.994;2023-09-18T07:27:45;99819.47;;;20.35;100.00
48553;BME280;34335;51.566;6.994;2023-09-18T07:30:11;99814.91;;;20.38;100.00
48553;BME280;34335;51.566;6.994;2023-09-18T07:32:39;99834.22;;;20.39;100.00
48553;BME280;34335;51.566;6.994;2023-09-18T07:35:06;99823.75;;;20.37;100.00
48553;BME280;34335;51.566;6.994;2023-09-18T07:37:32;99830.56;;;20.42;100.00
48553;BME280;34335;51.566;6.994;2023-09-18T07:39:57;99823.91;;;20.50;100.00
48553;BME280;34335;51.566;6.994;2023-09-18T07:42:25;99835.06;;;20.55;100.00
48553;BME280;34335;51.566;6.994;2023-09-18T07:44:51;99841.88;;;20.60;100.00
48553;BME280;34335;51.566;6.994;2023-09-18T07:47:16;99842.91;;;20.57;100.00
48553;BME280;34335;51.566;6.994;2023-09-18T07:49:41;99840.00;;;20.62;100.00
48553;BME280;34335;51.566;6.994;2023-09-18T07:52:06;99843.66;;;20.59;100.00
48553;BME280;34335;51.566;6.994;2023-09-18T07:54:32;99832.94;;;20.62;100.00
48553;BME280;34335;51.566;6.994;2023-09-18T07:56:57;99838.31;;;20.61;100.00
48553;BME280;34335;51.566;6.994;2023-09-18T07:59:22;99844.63;;;20.58;100.00
48553;BME280;34335;51.566;6.994;2023-09-18T08:01:47;99839.16;;;20.61;100.00
48553;BME280;34335;51.566;6.994;2023-09-18T08:04:13;99847.00;;;20.63;100.00
48553;BME280;34335;51.566;6.994;2023-09-18T08:06:38;99843.91;;;20.54;100.00
48553;BME280;34335;51.566;6.994;2023-09-18T08:09:03;99859.44;;;20.61;100.00
48553;BME280;34335;51.566;6.994;2023-09-18T08:11:28;99856.44;;;20.67;100.00
48553;BME280;34335;51.566;6.994;2023-09-18T08:13:54;99874.63;;;20.57;100.00
48553;BME280;34335;51.566;6.994;2023-09-18T08:16:19;99865.25;;;20.67;100.00
48553;BME280;34335;51.566;6.994;2023-09-18T08:18:44;99846.41;;;20.58;100.00
48553;BME280;34335;51.566;6.994;2023-09-18T08:21:09;99842.06;;;20.57;100.00
48553;BME280;34335;51.566;6.994;2023-09-18T08:23:35;99857.03;;;20.72;100.00
48553;BME280;34335;51.566;6.994;2023-09-18T08:26:00;99861.56;;;20.70;100.00
48553;BME280;34335;51.566;6.994;2023-09-18T08:28:26;99866.50;;;20.76;100.00
48553;BME280;34335;51.566;6.994;2023-09-18T08:30:51;99884.81;;;20.63;100.00
48553;BME280;34335;51.566;6.994;2023-09-18T08:33:17;99890.44;;;20.73;100.00
48553;BME280;34335;51.566;6.994;2023-09-18T08:35:42;99870.09;;;20.75;100.00
48553;BME280;34335;51.566;6.994;2023-09-18T08:38:07;99883.47;;;20.72;100.00
48553;BME280;34335;51.566;6.994;2023-09-18T08:40:33;99882.78;;;20.84;100.00
48553;BME280;34335;51.566;6.994;2023-09-18T08:42:59;99872.88;;;20.88;100.00
48553;BME280;34335;51.566;6.994;2023-09-18T08:45:46;99888.41;;;20.94;100.00
48553;BME280;34335;51.566;6.994;2023-09-18T08:48:14;99888.31;;;20.96;100.00
48553;BME280;34335;51.566;6.994;2023-09-18T08:50:40;99882.44;;;20.91;100.00
48553;BME280;34335;51.566;6.994;2023-09-18T08:53:06;99872.81;;;20.90;100.00
48553;BME280;34335;51.566;6.994;2023-09-18T08:55:33;99886.56;;;20.80;100.00
48553;BME280;34335;51.566;6.994;2023-09-18T08:57:59;99888.13;;;20.67;100.00
48553;BME280;34335;51.566;6.994;2023-09-18T09:00:25;99888.91;;;20.69;100.00
48553;BME280;34335;51.566;6.994;2023-09-18T09:02:50;99883.19;;;20.93;100.00
48553;BME280;34335;51.566;6.994;2023-09-18T09:05:16;99881.78;;;20.87;100.00
48553;BME280;34335;51.566;6.994;2023-09-18T09:07:41;99896.09;;;21.13;100.00
48553;BME280;34335;51.566;6.994;2023-09-18T09:10:06;99895.81;;;21.04;100.00
48553;BME280;34335;51.566;6.994;2023-09-18T09:15:16;99902.25;;;21.14;100.00
48553;BME280;34335;51.566;6.994;2023-09-18T09:17:42;99898.53;;;21.32;100.00
48553;BME280;34335;51.566;6.994;2023-09-18T09:20:09;99885.75;;;21.25;100.00
48553;BME280;34335;51.566;6.994;2023-09-18T09:22:38;99899.59;;;21.30;100.00
48553;BME280;34335;51.566;6.994;2023-09-18T09:25:03;99897.38;;;21.22;100.00
48553;BME280;34335;51.566;6.994;2023-09-18T09:27:29;99885.22;;;21.34;100.00
48553;BME280;34335;51.566;6.994;2023-09-18T09:29:58;99885.28;;;21.48;100.00
48553;BME280;34335;51.566;6.994;2023-09-18T09:32:24;99896.38;;;21.70;100.00
48553;BME280;34335;51.566;6.994;2023-09-18T09:34:49;99906.75;;;21.28;100.00
48553;BME280;34335;51.566;6.994;2023-09-18T09:37:14;99887.63;;;21.23;100.00
48553;BME280;34335;51.566;6.994;2023-09-18T09:39:50;99893.66;;;21.41;100.00
48553;BME280;34335;51.566;6.994;2023-09-18T09:42:18;99890.19;;;21.55;100.00
48553;BME280;34335;51.566;6.994;2023-09-18T09:44:44;99895.06;;;21.62;100.00
48553;BME280;34335;51.566;6.994;2023-09-18T09:47:09;99892.34;;;21.78;100.00
48553;BME280;34335;51.566;6.994;2023-09-18T09:49:47;99912.03;;;21.58;100.00
48553;BME280;34335;51.566;6.994;2023-09-18T09:52:19;99917.19;;;21.45;100.00
48553;BME280;34335;51.566;6.994;2023-09-18T09:54:47;99927.97;;;21.73;100.00
48553;BME280;34335;51.566;6.994;2023-09-18T09:57:12;99919.88;;;21.60;100.00
48553;BME280;34335;51.566;6.994;2023-09-18T09:59:37;99909.88;;;21.65;100.00
48553;BME280;34335;51.566;6.994;2023-09-18T10:02:03;99916.81;;;21.52;100.00
48553;BME280;34335;51.566;6.994;2023-09-18T10:04:29;99906.16;;;21.53;100.00
48553;BME280;34335;51.566;6.994;2023-09-18T10:07:07;99915.56;;;21.59;100.00
48553;BME280;34335;51.566;6.994;2023-09-18T10:09:35;99920.88;;;21.88;100.00
48553;BME280;34335;51.566;6.994;2023-09-18T10:12:03;99919.06;;;22.03;100.00
48553;BME280;34335;51.566;6.994;2023-09-18T10:14:35;99929.22;;;22.25;100.00
48553;BME280;34335;51.566;6.994;2023-09-18T10:17:12;99915.16;;;22.37;100.00
48553;BME280;34335;51.566;6.994;2023-09-18T10:19:48;99910.22;;;22.75;100.00
48553;BME280;34335;51.566;6.994;2023-09-18T10:22:37;99909.97;;;22.65;100.00
48553;BME280;34335;51.566;6.994;2023-09-18T10:25:11;99911.78;;;22.50;100.00
48553;BME280;34335;51.566;6.994;2023-09-18T10:27:39;99905.94;;;22.01;100.00
48553;BME280;34335;51.566;6.994;2023-09-18T10:30:06;99906.38;;;22.37;100.00
48553;BME280;34335;51.566;6.994;2023-09-18T10:32:35;99895.50;;;22.56;100.00
48553;BME280;34335;51.566;6.994;2023-09-18T10:35:01;99908.41;;;22.75;100.00
48553;BME280;34335;51.566;6.994;2023-09-18T10:37:27;99897.09;;;22.86;100.00
48553;BME280;34335;51.566;6.994;2023-09-18T10:39:54;99902.25;;;23.02;100.00
48553;BME280;34335;51.566;6.994;2023-09-18T10:42:22;99904.09;;;23.14;100.00
48553;BME280;34335;51.566;6.994;2023-09-18T10:44:48;99897.75;;;23.57;100.00
48553;BME280;34335;51.566;6.994;2023-09-18T10:47:14;99894.88;;;23.60;100.00
48553;BME280;34335;51.566;6.994;2023-09-18T10:49:39;99900.94;;;23.75;100.00
48553;BME280;34335;51.566;6.994;2023-09-18T10:52:05;99903.00;;;23.31;100.00
48553;BME280;34335;51.566;6.994;2023-09-18T10:54:31;99901.00;;;23.35;100.00
48553;BME280;34335;51.566;6.994;2023-09-18T10:56:57;99903.91;;;23.17;100.00
48553;BME280;34335;51.566;6.994;2023-09-18T10:59:22;99907.38;;;22.78;100.00
48553;BME280;34335;51.566;6.994;2023-09-18T11:01:48;99901.81;;;22.95;100.00
48553;BME280;34335;51.566;6.994;2023-09-18T11:04:18;99900.50;;;22.88;100.00
48553;BME280;34335;51.566;6.994;2023-09-18T11:09:28;99909.91;;;23.07;100.00
48553;BME280;34335;51.566;6.994;2023-09-18T11:14:50;99905.22;;;22.97;100.00
48553;BME280;34335;51.566;6.994;2023-09-18T11:17:39;99896.97;;;23.55;100.00
48553;BME280;34335;51.566;6.994;2023-09-18T11:20:09;99906.81;;;23.27;100.00
48553;BME280;34335;51.566;6.994;2023-09-18T11:23:16;99899.19;;;23.36;100.00
48553;BME280;34335;51.566;6.994;2023-09-18T11:25:42;99911.19;;;23.41;100.00
48553;BME280;34335;51.566;6.994;2023-09-18T11:28:16;99915.56;;;23.55;100.00
48553;BME280;34335;51.566;6.994;2023-09-18T11:30:54;99896.69;;;24.11;100.00
48553;BME280;34335;51.566;6.994;2023-09-18T11:33:49;99884.66;;;24.69;100.00
48553;BME280;34335;51.566;6.994;2023-09-18T11:38:56;99887.31;;;24.69;100.00
48553;BME280;34335;51.566;6.994;2023-09-18T11:41:25;99877.28;;;24.72;100.00
48553;BME280;34335;51.566;6.994;2023-09-18T11:43:52;99882.47;;;24.50;100.00
48553;BME280;34335;51.566;6.994;2023-09-18T11:46:19;99877.19;;;24.24;100.00
48553;BME280;34335;51.566;6.994;2023-09-18T11:48:47;99871.59;;;24.53;100.00
48553;BME280;34335;51.566;6.994;2023-09-18T11:51:12;99874.56;;;25.10;100.00
48553;BME280;34335;51.566;6.994;2023-09-18T11:53:38;99889.22;;;24.67;100.00
48553;BME280;34335;51.566;6.994;2023-09-18T11:56:04;99882.47;;;24.50;100.00
48553;BME280;34335;51.566;6.994;2023-09-18T11:58:45;99884.44;;;24.96;100.00
48553;BME280;34335;51.566;6.994;2023-09-18T12:01:10;99883.16;;;24.15;100.00
48553;BME280;34335;51.566;6.994;2023-09-18T12:03:36;99879.13;;;24.59;100.00
48553;BME280;34335;51.566;6.994;2023-09-18T12:06:02;99859.56;;;25.09;100.00
48553;BME280;34335;51.566;6.994;2023-09-18T12:08:31;99858.84;;;25.65;100.00
48553;BME280;34335;51.566;6.994;2023-09-18T12:10:56;99869.75;;;25.15;100.00
48553;BME280;34335;51.566;6.994;2023-09-18T12:13:25;99870.72;;;25.49;100.00
48553;BME280;34335;51.566;6.994;2023-09-18T12:15:59;99869.03;;;25.82;100.00
48553;BME280;34335;51.566;6.994;2023-09-18T12:18:24;99868.44;;;25.67;100.00
48553;BME280;34335;51.566;6.994;2023-09-18T12:20:50;99855.72;;;25.94;100.00
48553;BME280;34335;51.566;6.994;2023-09-18T12:23:16;99867.38;;;26.27;100.00
48553;BME280;34335;51.566;6.994;2023-09-18T12:25:45;99869.22;;;25.34;100.00
48553;BME280;34335;51.566;6.994;2023-09-18T12:28:13;99874.28;;;25.37;100.00
48553;BME280;34335;51.566;6.994;2023-09-18T12:30:38;99869.06;;;25.35;100.00
48553;BME280;34335;51.566;6.994;2023-09-18T12:33:04;99871.19;;;25.43;100.00
48553;BME280;34335;51.566;6.994;2023-09-18T12:35:31;99879.13;;;24.59;100.00
48553;BME280;34335;51.566;6.994;2023-09-18T12:37:59;99888.69;;;24.24;100.00
48553;BME280;34335;51.566;6.994;2023-09-18T12:40:30;99861.91;;;24.65;100.00
48553;BME280;34335;51.566;6.994;2023-09-18T12:42:56;99881.22;;;24.80;100.00
48553;BME280;34335;51.566;6.994;2023-09-18T12:45:23;99879.34;;;24.19;100.00
48553;BME280;34335;51.566;6.994;2023-09-18T12:47:50;99876.28;;;24.12;100.00
48553;BME280;34335;51.566;6.994;2023-09-18T12:50:15;99875.97;;;23.78;100.00
48553;BME280;34335;51.566;6.994;2023-09-18T12:52:41;99868.97;;;23.77;100.00
48553;BME280;34335;51.566;6.994;2023-09-18T12:55:07;99861.97;;;24.39;100.00
48553;BME280;34335;51.566;6.994;2023-09-18T12:57:33;99862.84;;;24.39;100.00
48553;BME280;34335;51.566;6.994;2023-09-18T12:59:58;99849.56;;;24.64;100.00
48553;BME280;34335;51.566;6.994;2023-09-18T13:02:24;99862.00;;;25.47;100.00